Assist Alamitos — WDH6800 — position and weather

sailwx.info

Track history (hours):
 
Tides and Currents Weather Stations Pressure Air Temp Water Temp Dewpoint Dewpoint Depression Visibility Wind Speed Wind Dir Waves Ship Positions

Assist Alamitos

Owner: Alamitos Bay Marine, Long Beach, CA. More information available from US FCC via Universal Licensing System and Coast Guard Vessel Documentation Center.

Last reported at 2018-Jul-21 19:05 UTC. Time now 2018-Jul-23 00:13 UTC.
Position N 33°45' W 118°07'.

Length 9 m.

MMSI: 367641740.

Date/timePositionNaut miles runAvg speedWind from/ knotsBaromVisibWave heightAir tempDewpointWater temp
2018-Jul-21 19:05N 33°45' W 118°07'0 0.0
2018-Jul-21 19:00N 33°45' W 118°07'0 0.0
2018-Jul-21 18:30N 33°45' W 118°07'0 0.0
2018-Jul-21 18:00N 33°45' W 118°07'0 0.0
2018-Jul-21 17:30N 33°45' W 118°07'0 0.0
2018-Jul-21 17:00N 33°45' W 118°07'0 0.0
2018-Jul-21 16:30N 33°45' W 118°07'0 0.0
2018-Jul-20 22:05N 33°45' W 118°07'0 0.0
2018-Jul-20 22:00N 33°45' W 118°07'0 0.0
2018-Jul-20 21:31N 33°45' W 118°07'0 0.0
2018-Jul-20 21:00N 33°45' W 118°07'0 0.0
2018-Jul-20 20:31N 33°45' W 118°07'0 0.0
2018-Jul-20 18:37N 33°45' W 118°07'0 0.0
2018-Jul-20 18:30N 33°45' W 118°07'0 0.0
2018-Jul-20 18:00N 33°45' W 118°07'0 0.0
2018-Jul-20 17:30N 33°45' W 118°07'0 0.0
2018-Jul-20 17:00N 33°45' W 118°07'  
2018-Jul-16 19:36N 33°45' W 118°07'0 0.0
2018-Jul-16 19:30N 33°45' W 118°07'0 0.0
2018-Jul-16 18:39N 33°45' W 118°07'0 0.0
2018-Jul-16 18:30N 33°45' W 118°07'0 0.0
2018-Jul-16 18:00N 33°45' W 118°07'0 0.0
2018-Jul-16 17:30N 33°45' W 118°07'0 0.0
2018-Jul-16 16:59N 33°45' W 118°07'0 0.1
2018-Jul-16 16:29N 33°45' W 118°07'0 0.3
2018-Jul-16 16:00N 33°45' W 118°07'0 0.0
2018-Jul-15 21:06N 33°45' W 118°07'1 4.1
2018-Jul-15 20:58N 33°45' W 118°07'2 4.6
2018-Jul-15 20:30N 33°44' W 118°05'2 4.0
2018-Jul-15 20:01N 33°43' W 118°07'2 4.4
2018-Jul-15 19:31N 33°45' W 118°07'0 0.0
2018-Jul-14 22:43N 33°45' W 118°07'1 6.7
2018-Jul-14 22:30N 33°44' W 118°08'1121.1
2018-Jul-14 22:01N 33°43' W 118°21'8 2.0
2018-Jul-14 18:15N 33°48' W 118°26'2 6.2
2018-Jul-14 17:59N 33°47' W 118°26'3 6.1
2018-Jul-14 17:26N 33°44' W 118°24'3 5.9
2018-Jul-14 17:00N 33°43' W 118°21'3 5.8
2018-Jul-14 16:30N 33°42' W 118°18'3 5.5
2018-Jul-14 16:00N 33°42' W 118°15'3 5.7
2018-Jul-14 15:30N 33°42' W 118°11'3 5.9
2018-Jul-14 15:01N 33°43' W 118°08'3 3.3
2018-Jul-14 14:00N 33°44' W 118°04'0 0.0
2018-Jul-14 13:30N 33°44' W 118°04'1 2.7
2018-Jul-14 13:00N 33°44' W 118°06'1 0.1
2018-Jul-14 03:11N 33°45' W 118°07'0 0.1
2018-Jul-14 03:00N 33°45' W 118°07'0 0.0
2018-Jul-12 21:55N 33°45' W 118°07'3 8.3
2018-Jul-12 21:31N 33°46' W 118°11'3 1.2
2018-Jul-12 18:37N 33°45' W 118°07'0 3.3
2018-Jul-12 18:30N 33°45' W 118°07'2 4.5
2018-Jul-12 17:59N 33°44' W 118°04'1 2.6
2018-Jul-12 17:30N 33°44' W 118°06'1 2.4
2018-Jul-12 17:00N 33°44' W 118°07'  
Track history (hours):
 
Tides and Currents Weather Stations Pressure Air Temp Water Temp Dewpoint Dewpoint Depression Visibility Wind Speed Wind Dir Waves Ship Positions

Assist Alamitos

Owner: Alamitos Bay Marine, Long Beach, CA. More information available from US FCC via Universal Licensing System and Coast Guard Vessel Documentation Center.

Last reported at 2018-Jul-21 19:05 UTC. Time now 2018-Jul-23 00:13 UTC.
Position N 33°45' W 118°07'.

Length 9 m.

MMSI: 367641740.

Date/timePositionNaut miles runAvg speedWind from/ knotsBaromVisibWave heightAir tempDewpointWater temp
2018-Jul-21 19:05N 33°45' W 118°07'0 0.0
2018-Jul-21 19:00N 33°45' W 118°07'0 0.0
2018-Jul-21 18:30N 33°45' W 118°07'0 0.0
2018-Jul-21 18:00N 33°45' W 118°07'0 0.0
2018-Jul-21 17:30N 33°45' W 118°07'0 0.0
2018-Jul-21 17:00N 33°45' W 118°07'0 0.0
2018-Jul-21 16:30N 33°45' W 118°07'0 0.0
2018-Jul-20 22:05N 33°45' W 118°07'0 0.0
2018-Jul-20 22:00N 33°45' W 118°07'0 0.0
2018-Jul-20 21:31N 33°45' W 118°07'0 0.0
2018-Jul-20 21:00N 33°45' W 118°07'0 0.0
2018-Jul-20 20:31N 33°45' W 118°07'0 0.0
2018-Jul-20 18:37N 33°45' W 118°07'0 0.0
2018-Jul-20 18:30N 33°45' W 118°07'0 0.0
2018-Jul-20 18:00N 33°45' W 118°07'0 0.0
2018-Jul-20 17:30N 33°45' W 118°07'0 0.0
2018-Jul-20 17:00N 33°45' W 118°07'  
2018-Jul-16 19:36N 33°45' W 118°07'0 0.0
2018-Jul-16 19:30N 33°45' W 118°07'0 0.0
2018-Jul-16 18:39N 33°45' W 118°07'0 0.0
2018-Jul-16 18:30N 33°45' W 118°07'0 0.0
2018-Jul-16 18:00N 33°45' W 118°07'0 0.0
2018-Jul-16 17:30N 33°45' W 118°07'0 0.0
2018-Jul-16 16:59N 33°45' W 118°07'0 0.1
2018-Jul-16 16:29N 33°45' W 118°07'0 0.3
2018-Jul-16 16:00N 33°45' W 118°07'0 0.0
2018-Jul-15 21:06N 33°45' W 118°07'1 4.1
2018-Jul-15 20:58N 33°45' W 118°07'2 4.6
2018-Jul-15 20:30N 33°44' W 118°05'2 4.0
2018-Jul-15 20:01N 33°43' W 118°07'2 4.4
2018-Jul-15 19:31N 33°45' W 118°07'0 0.0
2018-Jul-14 22:43N 33°45' W 118°07'1 6.7
2018-Jul-14 22:30N 33°44' W 118°08'1121.1
2018-Jul-14 22:01N 33°43' W 118°21'8 2.0
2018-Jul-14 18:15N 33°48' W 118°26'2 6.2
2018-Jul-14 17:59N 33°47' W 118°26'3 6.1
2018-Jul-14 17:26N 33°44' W 118°24'3 5.9
2018-Jul-14 17:00N 33°43' W 118°21'3 5.8
2018-Jul-14 16:30N 33°42' W 118°18'3 5.5
2018-Jul-14 16:00N 33°42' W 118°15'3 5.7
2018-Jul-14 15:30N 33°42' W 118°11'3 5.9
2018-Jul-14 15:01N 33°43' W 118°08'3 3.3
2018-Jul-14 14:00N 33°44' W 118°04'0 0.0
2018-Jul-14 13:30N 33°44' W 118°04'1 2.7
2018-Jul-14 13:00N 33°44' W 118°06'1 0.1
2018-Jul-14 03:11N 33°45' W 118°07'0 0.1
2018-Jul-14 03:00N 33°45' W 118°07'0 0.0
2018-Jul-12 21:55N 33°45' W 118°07'3 8.3
2018-Jul-12 21:31N 33°46' W 118°11'3 1.2
2018-Jul-12 18:37N 33°45' W 118°07'0 3.3
2018-Jul-12 18:30N 33°45' W 118°07'2 4.5
2018-Jul-12 17:59N 33°44' W 118°04'1 2.6
2018-Jul-12 17:30N 33°44' W 118°06'1 2.4
2018-Jul-12 17:00N 33°44' W 118°07'  

Dump ship's entire track history